Terminal Aerodrome Forecast
Issued by NWS Norman, OK

Home | Current Version | Previous Version | Text Only | Print | Product List | Glossary Off
Versions: 1 2 3 4 5 6 7 8 9 10 11 12 13 14 15 16 17 18 19 20 21 22 23 24 25 26 27 28 29 30 31 32 33 34 35 36 37 38

000
FTUS44 KOUN 241124
TAFOKC
TAF
KOKC 241124Z 2412/2512 32016G24KT P6SM OVC018
     FM241500 33014G20KT P6SM SCT090 SCT250
     FM250000 35003KT P6SM SCT250
     FM251100 14005KT P6SM FEW250=

USA.gov is the U.S. government's official web portal to all federal, state and local government web resources and services.